Orbital elements of SL-16 DEB
| Launched | 21 October 1985 |
| Flight ended | – |
| Launch site | Tyuratam Missile and Space Center, Kazakhstan (Also known as Baikonur Cosmodrome) |
| Owner | Commonwealth of Independent States (former USSR) |
| NORAD ID | 16389 |
| Date fetched |
Epoch osculation |
Inc. [°] |
Ecc. | RA asc node [hr] |
Arg Peri. [°] |
Mean anom [°] |
Mean motion [rev/day] |
Abs. mag |
| Date fetched |
Epoch osculation |
Inc. [°] |
Ecc. | RA asc node [hr] |
Arg Peri. [°] |
Mean anom [°] |
Mean motion [rev/day] |
Abs. mag |
| 2026 May 01 17:56 | 2026 Apr 30 11:07:21 | 71.0004 | 0.01898 | 17.0974 | 248.3607 | 109.7182 | 13.76762 | – |
| 2026 Apr 30 17:56 | 2026 Apr 30 11:07:21 | 71.0004 | 0.01898 | 17.0974 | 248.3607 | 109.7182 | 13.76762 | – |
| 2026 Apr 29 17:57 | 2026 Apr 24 12:08:13 | 70.9999 | 0.01899 | 17.8804 | 256.7798 | 109.7182 | 13.76762 | – |
| 2026 Apr 28 17:56 | 2026 Apr 24 12:08:13 | 70.9999 | 0.01899 | 17.8804 | 256.7798 | 109.7182 | 13.76762 | – |
| 2026 Apr 27 17:58 | 2026 Apr 24 12:08:13 | 70.9999 | 0.01899 | 17.8804 | 256.7798 | 109.7182 | 13.76762 | – |
| 2026 Apr 26 17:58 | 2026 Apr 24 12:08:13 | 70.9999 | 0.01899 | 17.8804 | 256.7798 | 109.7182 | 13.76762 | – |
| 2026 Apr 25 17:58 | 2026 Apr 24 12:08:13 | 70.9999 | 0.01899 | 17.8804 | 256.7798 | 109.7182 | 13.76762 | – |
| 2026 Apr 24 17:59 | 2026 Apr 24 12:08:13 | 70.9999 | 0.01899 | 17.8804 | 256.7798 | 109.7182 | 13.76762 | – |
| 2026 Apr 23 17:57 | 2026 Apr 19 04:50:41 | 70.9995 | 0.01899 | 18.5776 | 264.2848 | 109.7182 | 13.76762 | – |
| 2026 Apr 22 17:57 | 2026 Apr 19 04:50:41 | 70.9995 | 0.01899 | 18.5776 | 264.2848 | 109.7182 | 13.76762 | – |
| 2026 Apr 21 17:57 | 2026 Apr 19 04:50:41 | 70.9995 | 0.01899 | 18.5776 | 264.2848 | 109.7182 | 13.76762 | – |
| 2026 Apr 20 17:57 | 2026 Apr 19 04:50:41 | 70.9995 | 0.01899 | 18.5776 | 264.2848 | 109.7182 | 13.76762 | – |
| 2026 Apr 19 17:58 | 2026 Apr 19 04:50:41 | 70.9995 | 0.01899 | 18.5776 | 264.2848 | 109.7182 | 13.76762 | – |
| 2026 Apr 18 17:56 | 2026 Apr 13 04:06:56 | 70.9997 | 0.01899 | 19.3702 | 272.8140 | 109.7182 | 13.76762 | – |
| 2026 Apr 16 17:57 | 2026 Apr 13 04:06:56 | 70.9997 | 0.01899 | 19.3702 | 272.8140 | 109.7182 | 13.76762 | – |
| 2026 Apr 14 17:57 | 2026 Apr 13 04:06:56 | 70.9997 | 0.01899 | 19.3702 | 272.8140 | 109.7182 | 13.76762 | – |
| 2026 Apr 13 17:57 | 2026 Apr 13 04:06:56 | 70.9997 | 0.01899 | 19.3702 | 272.8140 | 109.7182 | 13.76762 | – |
| 2026 Apr 12 17:57 | 2026 Apr 08 14:15:39 | 71.0003 | 0.01898 | 19.9719 | 279.2842 | 109.7182 | 13.76762 | – |
| 2026 Apr 11 17:57 | 2026 Apr 08 14:15:39 | 71.0003 | 0.01898 | 19.9719 | 279.2842 | 109.7182 | 13.76762 | – |
| 2026 Apr 10 17:58 | 2026 Apr 08 14:15:39 | 71.0003 | 0.01898 | 19.9719 | 279.2842 | 109.7182 | 13.76762 | – |
| 2026 Apr 09 18:01 | 2026 Apr 08 14:15:39 | 71.0003 | 0.01898 | 19.9719 | 279.2842 | 109.7182 | 13.76762 | – |
| 2026 Apr 08 17:57 | 2026 Apr 08 14:15:39 | 71.0003 | 0.01898 | 19.9719 | 279.2842 | 109.7182 | 13.76762 | – |
| 2026 Apr 07 17:57 | 2026 Apr 02 01:19:32 | 71.0010 | 0.01898 | 20.8314 | 288.5240 | 109.7182 | 13.76762 | – |
| 2026 Apr 06 17:57 | 2026 Apr 02 01:19:32 | 71.0010 | 0.01898 | 20.8314 | 288.5240 | 109.7182 | 13.76762 | – |
| 2026 Apr 05 17:56 | 2026 Apr 02 01:19:32 | 71.0010 | 0.01898 | 20.8314 | 288.5240 | 109.7182 | 13.76762 | – |
| 2026 Apr 04 17:57 | 2026 Apr 02 01:19:32 | 71.0010 | 0.01898 | 20.8314 | 288.5240 | 109.7182 | 13.76762 | – |